Time;durP1;ratioP1;P1;durP2;ratioP2;P2;SDS_P1;SDS_P2;PMS_P1;PMS_P2;Temp;Humidity;BMP_temperature;BMP_pressure;BME280_temperature;BME280_humidity;BME280_pressure;Samples;Min_cycle;Max_cycle;Signal;HPM_P1;HPM_P2
2022/10/23 00:01:20;;;;;;;6.80;5.30;;;;;;;6.81;100.00;96556.84;4986592;28;20458;-78
2022/10/23 00:03:51;;;;;;;9.33;5.03;;;;;;;6.55;100.00;96505.97;4990907;28;20417;-78
2022/10/23 00:06:18;;;;;;;7.20;4.87;;;;;;;6.47;100.00;96496.91;4982687;28;20469;-79
2022/10/23 00:08:46;;;;;;;6.30;5.47;;;;;;;6.71;100.00;96555.25;4963382;28;20425;-79
2022/10/23 00:11:16;;;;;;;6.00;4.90;;;;;;;6.52;100.00;96539.59;4987779;28;20467;-78
2022/10/23 00:13:43;;;;;;;7.53;4.90;;;;;;;6.50;100.00;96525.97;4999238;28;20408;-79
2022/10/23 00:16:10;;;;;;;7.97;3.33;;;;;;;6.68;100.00;96550.59;5001161;28;20440;-78
2022/10/23 00:18:37;;;;;;;8.03;4.37;;;;;;;6.89;100.00;96585.06;5035488;28;20443;-79
2022/10/23 00:21:07;;;;;;;7.60;4.07;;;;;;;6.71;100.00;96557.88;5021693;28;20467;-79
2022/10/23 00:23:34;;;;;;;5.90;3.63;;;;;;;6.63;100.00;96548.03;5034558;28;20474;-78
2022/10/23 00:26:01;;;;;;;5.10;3.60;;;;;;;6.49;100.00;96526.28;5046215;28;20531;-77
2022/10/23 00:28:28;;;;;;;16.30;5.83;;;;;;;6.52;100.00;96552.72;5038102;28;20435;-78
2022/10/23 00:30:55;;;;;;;14.40;4.43;;;;;;;6.43;100.00;96551.88;5037778;28;20478;-78
2022/10/23 00:33:22;;;;;;;6.80;4.30;;;;;;;6.30;100.00;96518.53;5037728;28;20493;-78
2022/10/23 00:35:48;;;;;;;7.33;4.80;;;;;;;6.63;100.00;96569.06;5036437;28;20435;-78
2022/10/23 00:38:15;;;;;;;10.50;5.90;;;;;;;6.43;100.00;96540.59;5020300;28;20466;-79
2022/10/23 00:40:44;;;;;;;10.07;6.50;;;;;;;6.18;100.00;96502.50;5043313;28;20463;-78
2022/10/23 00:43:23;;;;;;;20.40;7.97;;;;;;;6.66;100.00;96573.72;5035722;28;20516;-78
2022/10/23 00:45:50;;;;;;;30.53;8.37;;;;;;;6.62;100.00;96578.03;5036858;28;20469;-79
2022/10/23 00:48:17;;;;;;;23.40;7.83;;;;;;;6.41;100.00;96543.53;5038528;28;20435;-78
2022/10/23 00:50:46;;;;;;;21.43;7.60;;;;;;;6.61;100.00;96568.59;5036808;28;20524;-77
2022/10/23 00:53:15;;;;;;;15.90;6.30;;;;;;;6.52;100.00;96571.13;5034867;28;20471;-78
2022/10/23 00:55:45;;;;;;;24.80;7.27;;;;;;;6.49;100.00;96570.94;5036554;28;20427;-78
2022/10/23 00:58:13;;;;;;;15.30;7.67;;;;;;;5.49;100.00;96443.97;5037797;28;20444;-78
2022/10/23 01:00:47;;;;;;;14.10;6.70;;;;;;;6.26;100.00;96559.56;5039119;28;20532;-78
2022/10/23 01:03:16;;;;;;;16.13;8.37;;;;;;;6.30;100.00;96560.53;5038588;28;20442;-78
2022/10/23 01:06:04;;;;;;;12.27;7.37;;;;;;;6.38;100.00;96551.19;5037729;28;20432;-78
2022/10/23 01:08:48;;;;;;;20.17;8.30;;;;;;;6.02;100.00;96498.63;5036842;28;20471;-78
2022/10/23 01:11:44;;;;;;;18.47;7.50;;;;;;;6.28;100.00;96531.19;5018043;28;20451;-78
2022/10/23 01:14:18;;;;;;;27.20;11.73;;;;;;;6.49;100.00;96555.94;5021211;28;20439;-77
2022/10/23 01:17:18;;;;;;;14.23;7.73;;;;;;;6.23;100.00;96510.25;5038407;28;20440;-78
2022/10/23 01:20:19;;;;;;;23.83;10.30;;;;;;;6.37;100.00;96518.13;5022362;28;20553;-79
2022/10/23 01:22:55;;;;;;;24.80;7.43;;;;;;;6.48;100.00;96551.78;5017124;28;20450;-80
2022/10/23 01:25:40;;;;;;;30.37;8.07;;;;;;;6.37;100.00;96553.03;5038311;28;20438;-79
2022/10/23 01:28:19;;;;;;;27.43;7.43;;;;;;;5.97;100.00;96504.72;5037796;28;20435;-79
2022/10/23 01:30:47;;;;;;;23.77;6.90;;;;;;;6.08;100.00;96515.81;5011514;28;20451;-80
2022/10/23 01:33:28;;;;;;;25.40;9.03;;;;;;;5.98;100.00;96466.13;5017912;28;20472;-79
2022/10/23 01:36:05;;;;;;;24.47;8.73;;;;;;;6.43;100.00;96524.84;5017993;28;20455;-80
2022/10/23 01:39:00;;;;;;;19.07;8.00;;;;;;;6.41;100.00;96525.13;5038086;28;20415;-79
2022/10/23 01:41:27;;;;;;;12.87;7.90;;;;;;;6.51;100.00;96522.28;5021745;28;20442;-79
2022/10/23 01:43:55;;;;;;;15.47;7.70;;;;;;;6.56;100.00;96521.41;5046486;28;20435;-78
2022/10/23 01:46:26;;;;;;;33.13;9.27;;;;;;;6.35;100.00;96486.13;5022468;28;20424;-80
2022/10/23 01:48:56;;;;;;;10.90;7.67;;;;;;;6.58;100.00;96505.34;5037895;28;20430;-80
2022/10/23 01:51:26;;;;;;;17.00;7.30;;;;;;;5.13;100.00;96282.13;5008595;28;20439;-79
2022/10/23 01:53:58;;;;;;;11.80;7.70;;;;;;;6.68;100.00;96499.88;5037888;28;20439;-78
2022/10/23 01:56:30;;;;;;;12.10;7.30;;;;;;;6.67;100.00;96509.59;5037930;28;20450;-80
2022/10/23 01:59:02;;;;;;;14.03;7.83;;;;;;;6.39;100.00;96469.50;5037804;28;20439;-79
2022/10/23 02:01:38;;;;;;;21.40;8.70;;;;;;;6.45;100.00;96491.97;5022333;28;20439;-78
2022/10/23 02:04:09;;;;;;;13.70;7.23;;;;;;;6.28;100.00;96426.16;5021508;28;20431;-80
2022/10/23 02:06:35;;;;;;;12.03;8.03;;;;;;;6.83;100.00;96507.44;5037543;28;20475;-80
2022/10/23 02:09:03;;;;;;;18.77;8.73;;;;;;;6.84;100.00;96500.31;5037520;28;20443;-80
2022/10/23 02:11:36;;;;;;;17.47;8.80;;;;;;;6.67;100.00;96466.78;5037522;28;20472;-80
2022/10/23 02:14:19;;;;;;;12.23;7.83;;;;;;;6.92;100.00;96502.22;5037799;28;20438;-79
2022/10/23 02:16:49;;;;;;;14.93;8.13;;;;;;;7.06;100.00;96501.09;5037763;28;20432;-80
2022/10/23 02:19:35;;;;;;;19.70;9.27;;;;;;;6.99;100.00;96503.38;5037790;28;20427;-79
2022/10/23 02:22:13;;;;;;;20.23;9.80;;;;;;;6.98;100.00;96488.69;5037452;28;20451;-78
2022/10/23 02:24:49;;;;;;;19.20;10.43;;;;;;;6.72;100.00;96443.81;5037496;28;20450;-78
2022/10/23 02:27:22;;;;;;;20.37;10.13;;;;;;;7.01;100.00;96471.53;5029388;28;20428;-79
2022/10/23 02:30:15;;;;;;;23.47;10.07;;;;;;;6.69;100.00;96404.25;5033848;28;20446;-80
2022/10/23 02:32:52;;;;;;;22.27;10.57;;;;;;;6.66;100.00;96383.78;5018561;28;20472;-78
2022/10/23 02:35:21;;;;;;;13.70;9.60;;;;;;;7.03;100.00;96432.56;5021232;28;20439;-80
2022/10/23 02:37:57;;;;;;;16.23;9.27;;;;;;;6.82;100.00;96400.78;5036337;28;20421;-81
2022/10/23 02:40:39;;;;;;;15.27;9.60;;;;;;;7.29;100.00;96461.66;5023547;28;20485;-81
2022/10/23 02:43:12;;;;;;;13.70;9.60;;;;;;;7.30;100.00;96457.94;5030907;28;20994;-81
2022/10/23 02:45:52;;;;;;;13.90;9.27;;;;;;;7.23;100.00;96450.50;5014349;28;20447;-81
2022/10/23 02:48:25;;;;;;;16.93;8.97;;;;;;;6.95;100.00;96410.44;5019033;28;20439;-81
2022/10/23 02:51:06;;;;;;;27.57;12.10;;;;;;;7.25;100.00;96456.22;5042725;28;20471;-79
2022/10/23 02:53:52;;;;;;;22.80;13.37;;;;;;;7.35;100.00;96455.19;5020137;28;20457;-80
2022/10/23 02:56:33;;;;;;;20.90;11.17;;;;;;;7.28;100.00;96428.53;5036843;28;20420;-78
2022/10/23 02:59:31;;;;;;;35.07;12.73;;;;;;;7.44;100.00;96442.84;5002467;28;20470;-80
2022/10/23 03:02:16;;;;;;;38.57;16.57;;;;;;;7.52;100.00;96441.34;4997864;28;20432;-80
2022/10/23 03:04:45;;;;;;;25.67;14.90;;;;;;;7.50;100.00;96419.84;4997192;28;20439;-81
2022/10/23 03:07:13;;;;;;;25.40;13.57;;;;;;;7.62;100.00;96435.81;4997283;28;20442;-81
2022/10/23 03:09:41;;;;;;;22.53;13.10;;;;;;;6.96;100.00;96330.50;5012737;28;21010;-81
2022/10/23 03:12:07;;;;;;;25.50;13.73;;;;;;;7.60;100.00;96420.31;4996708;28;20471;-81
2022/10/23 03:14:35;;;;;;;20.03;14.53;;;;;;;7.26;100.00;96363.09;5029906;28;20443;-81
2022/10/23 03:17:03;;;;;;;25.37;15.40;;;;;;;7.83;100.00;96436.03;4997258;28;20446;-81
2022/10/23 03:19:30;;;;;;;20.87;13.67;;;;;;;7.22;100.00;96343.75;5012334;28;20486;-81
2022/10/23 03:21:57;;;;;;;21.40;13.20;;;;;;;7.15;100.00;96347.91;5008513;28;20474;-81
2022/10/23 03:24:24;;;;;;;28.10;13.80;;;;;;;7.56;100.00;96406.22;5012618;28;20439;-81
2022/10/23 03:26:51;;;;;;;21.17;12.50;;;;;;;7.83;100.00;96438.66;4993340;28;20440;-81
2022/10/23 03:29:26;;;;;;;20.60;12.87;;;;;;;7.86;100.00;96441.47;5006242;28;20514;-81
2022/10/23 03:31:54;;;;;;;21.63;13.90;;;;;;;7.85;100.00;96423.34;4997011;28;20466;-81
2022/10/23 03:34:21;;;;;;;19.10;11.60;;;;;;;8.27;100.00;96456.88;5012877;28;20442;-80
2022/10/23 03:36:47;;;;;;;18.60;11.80;;;;;;;7.96;100.00;96420.13;5006767;28;20440;-80
2022/10/23 03:39:17;;;;;;;16.23;10.80;;;;;;;7.95;100.00;96415.94;5007546;28;20453;-81
2022/10/23 03:41:44;;;;;;;22.43;13.07;;;;;;;8.21;100.00;96452.84;5000388;28;20931;-81
2022/10/23 03:44:13;;;;;;;13.20;10.87;;;;;;;7.95;100.00;96405.41;5000266;28;20451;-80
2022/10/23 03:46:43;;;;;;;18.33;12.10;;;;;;;7.95;100.00;96404.63;5001071;28;20439;-81
2022/10/23 03:49:09;;;;;;;16.73;10.67;;;;;;;8.24;100.00;96459.38;5019657;28;20862;-80
2022/10/23 03:51:40;;;;;;;15.33;11.40;;;;;;;8.11;100.00;96426.81;5022583;28;20459;-79
2022/10/23 03:54:07;;;;;;;16.00;10.43;;;;;;;8.36;100.00;96456.16;5025617;28;20959;-79
2022/10/23 03:56:34;;;;;;;18.80;12.40;;;;;;;7.93;100.00;96409.44;5008829;28;20450;-79
2022/10/23 03:59:01;;;;;;;15.60;10.83;;;;;;;8.22;100.00;96451.00;5009217;28;20461;-79
2022/10/23 04:01:28;;;;;;;14.53;11.57;;;;;;;8.12;100.00;96446.78;5006769;28;20505;-79
2022/10/23 04:03:54;;;;;;;20.70;10.87;;;;;;;8.25;100.00;96474.84;5018315;28;20947;-79
2022/10/23 04:06:23;;;;;;;18.70;10.27;;;;;;;7.87;100.00;96418.53;5018420;28;20463;-79
2022/10/23 04:08:54;;;;;;;16.70;11.90;;;;;;;7.67;100.00;96383.06;5002595;28;20489;-79
2022/10/23 04:11:21;;;;;;;21.73;13.77;;;;;;;7.75;100.00;96373.63;5019717;28;21046;-79
2022/10/23 04:13:47;;;;;;;27.30;19.50;;;;;;;8.03;100.00;96424.94;5019430;28;20459;-79
2022/10/23 04:16:14;;;;;;;26.70;17.93;;;;;;;7.63;100.00;96374.22;5017735;28;20439;-80
2022/10/23 04:18:43;;;;;;;28.13;16.13;;;;;;;8.04;100.00;96431.78;5017668;28;20443;-79
2022/10/23 04:21:10;;;;;;;23.20;15.57;;;;;;;7.71;100.00;96379.50;5017489;28;20455;-80
2022/10/23 04:23:37;;;;;;;20.80;13.33;;;;;;;7.79;100.00;96383.25;5017031;28;20453;-79
2022/10/23 04:26:10;;;;;;;19.33;13.23;;;;;;;7.78;100.00;96376.44;5017872;28;20443;-79
2022/10/23 04:28:36;;;;;;;12.40;10.30;;;;;;;8.02;100.00;96394.44;5034102;28;20435;-79
2022/10/23 04:31:03;;;;;;;13.93;10.13;;;;;;;7.61;100.00;96327.16;5017032;28;20507;-79
2022/10/23 04:33:30;;;;;;;10.00;8.47;;;;;;;8.27;100.00;96427.91;5017373;28;20459;-79
2022/10/23 04:35:56;;;;;;;20.77;10.97;;;;;;;8.08;100.00;96400.31;5017189;28;20450;-79
2022/10/23 04:38:24;;;;;;;17.93;12.77;;;;;;;7.91;100.00;96372.88;5017274;28;20471;-80
2022/10/23 04:40:51;;;;;;;22.13;12.77;;;;;;;8.24;100.00;96422.50;5017088;28;20451;-79
2022/10/23 04:43:21;;;;;;;22.77;12.20;;;;;;;8.32;100.00;96423.59;5001500;28;20849;-79
2022/10/23 04:45:49;;;;;;;18.60;12.03;;;;;;;8.38;100.00;96423.16;5022838;28;20431;-80
2022/10/23 04:48:15;;;;;;;14.37;11.07;;;;;;;7.99;100.00;96371.34;5000652;28;20440;-79
2022/10/23 04:51:09;;;;;;;10.43;9.30;;;;;;;8.35;100.00;96407.19;5016439;28;20459;-79
2022/10/23 04:54:11;;;;;;;13.27;9.67;;;;;;;8.29;100.00;96396.03;5004225;28;20474;-79
2022/10/23 04:56:40;;;;;;;26.23;11.87;;;;;;;8.37;100.00;96405.03;5032759;28;20550;-79
2022/10/23 04:59:12;;;;;;;15.87;11.13;;;;;;;8.28;100.00;96392.63;5000507;28;20502;-79
2022/10/23 05:01:39;;;;;;;12.57;9.67;;;;;;;8.46;100.00;96401.31;5016261;28;20838;-79
2022/10/23 05:04:08;;;;;;;15.63;12.97;;;;;;;8.29;100.00;96372.31;5018739;28;20448;-79
2022/10/23 05:06:57;;;;;;;11.43;10.10;;;;;;;8.22;100.00;96361.44;5014998;28;20499;-79
2022/10/23 05:09:50;;;;;;;11.53;10.03;;;;;;;8.35;100.00;96384.25;5009135;28;20487;-79
2022/10/23 05:12:40;;;;;;;11.40;8.83;;;;;;;8.36;100.00;96370.00;5003618;28;20463;-79
2022/10/23 05:15:07;;;;;;;13.73;10.33;;;;;;;8.31;100.00;96354.34;5015648;28;20850;-79
2022/10/23 05:17:36;;;;;;;10.40;9.30;;;;;;;8.33;100.00;96361.94;5017773;28;20430;-79
2022/10/23 05:20:25;;;;;;;13.27;9.93;;;;;;;8.58;100.00;96401.47;5015499;28;20509;-79
2022/10/23 05:22:55;;;;;;;11.50;8.83;;;;;;;8.78;100.00;96417.72;4956041;29;20434;-79
2022/10/23 05:25:23;;;;;;;11.57;9.50;;;;;;;8.02;100.00;96286.50;4940167;29;21135;-79
2022/10/23 05:27:58;;;;;;;11.23;8.70;;;;;;;8.44;100.00;96347.38;4925654;29;20449;-79
2022/10/23 05:30:25;;;;;;;10.30;8.90;;;;;;;8.62;100.00;96358.69;4955833;29;20456;-79
2022/10/23 05:32:53;;;;;;;12.50;9.23;;;;;;;8.56;100.00;96358.06;4940242;29;20462;-79
2022/10/23 05:35:23;;;;;;;11.07;9.50;;;;;;;8.87;100.00;96403.44;4940151;29;21033;-79
2022/10/23 05:37:53;;;;;;;14.73;8.57;;;;;;;8.96;100.00;96410.59;4938043;29;20478;-79
2022/10/23 05:40:22;;;;;;;9.67;8.73;;;;;;;8.70;100.00;96366.59;4939777;29;20474;-79
2022/10/23 05:42:55;;;;;;;13.73;10.13;;;;;;;8.81;100.00;96386.25;4940980;29;20446;-79
2022/10/23 05:45:33;;;;;;;11.30;9.20;;;;;;;8.76;100.00;96386.41;4939900;29;20442;-79
2022/10/23 05:48:25;;;;;;;13.70;9.53;;;;;;;8.73;100.00;96370.44;4910181;29;20431;-79
2022/10/23 05:51:21;;;;;;;11.57;10.40;;;;;;;9.05;100.00;96419.22;4954938;29;20490;-79
2022/10/23 05:54:14;;;;;;;11.17;9.97;;;;;;;9.04;100.00;96417.69;4936063;29;21155;-79
2022/10/23 05:56:56;;;;;;;12.03;10.37;;;;;;;8.84;100.00;96383.00;4940227;29;20464;-80
2022/10/23 05:59:55;;;;;;;14.33;10.00;;;;;;;8.79;100.00;96385.00;5123910;27;20927;-80
2022/10/23 06:02:25;;;;;;;10.73;9.60;;;;;;;8.87;100.00;96398.19;5093732;28;20934;-80
2022/10/23 06:04:58;;;;;;;13.10;9.97;;;;;;;8.88;100.00;96394.44;5091444;28;20435;-80
2022/10/23 06:07:27;;;;;;;12.43;9.80;;;;;;;8.98;100.00;96408.41;5103581;28;20879;-79
2022/10/23 06:09:59;;;;;;;11.10;9.77;;;;;;;8.87;100.00;96408.72;5100264;28;20470;-79
2022/10/23 06:12:26;;;;;;;15.07;11.40;;;;;;;9.00;100.00;96427.31;5085479;28;20438;-80
2022/10/23 06:14:53;;;;;;;11.27;10.17;;;;;;;8.86;100.00;96403.78;5081878;28;20455;-80
2022/10/23 06:17:26;;;;;;;14.03;11.90;;;;;;;9.10;100.00;96434.91;5083104;28;20435;-80
2022/10/23 06:19:59;;;;;;;11.90;10.43;;;;;;;8.95;100.00;96409.00;5094468;28;20566;-80
2022/10/23 06:22:26;;;;;;;13.73;10.90;;;;;;;8.79;100.00;96369.97;5075875;28;20510;-80
2022/10/23 06:25:03;;;;;;;14.17;12.67;;;;;;;9.14;100.00;96423.41;5091999;28;20439;-79
2022/10/23 06:27:30;;;;;;;14.90;12.53;;;;;;;9.13;100.00;96413.94;5102173;28;20434;-80
2022/10/23 06:29:56;;;;;;;14.80;12.40;;;;;;;9.03;100.00;96397.69;5112480;28;20451;-79
2022/10/23 06:32:23;;;;;;;20.30;13.10;;;;;;;9.22;100.00;96423.72;5095507;28;20503;-80
2022/10/23 06:35:06;;;;;;;16.30;14.23;;;;;;;9.02;100.00;96383.72;5092964;28;20436;-79
2022/10/23 06:37:33;;;;;;;15.30;13.00;;;;;;;9.32;100.00;96418.09;5109350;28;20496;-79
2022/10/23 06:40:20;;;;;;;16.57;12.80;;;;;;;9.30;100.00;96397.28;5091887;28;20466;-79
2022/10/23 06:42:56;;;;;;;19.03;15.37;;;;;;;8.95;100.00;96332.53;5092088;28;20431;-79
2022/10/23 06:45:45;;;;;;;16.67;14.10;;;;;;;9.24;100.00;96366.91;5081844;28;20459;-79
2022/10/23 06:48:11;;;;;;;21.77;14.93;;;;;;;9.11;100.00;96336.22;5104932;28;20418;-80
2022/10/23 06:50:57;;;;;;;19.33;15.57;;;;;;;9.61;100.00;96406.78;5077982;28;20476;-80
2022/10/23 06:53:34;;;;;;;20.80;15.30;;;;;;;9.66;100.00;96412.69;5091712;28;20441;-80
2022/10/23 06:56:10;;;;;;;15.77;12.40;;;;;;;9.68;100.00;96423.69;5091068;28;20501;-80
2022/10/23 06:58:39;;;;;;;17.73;14.43;;;;;;;9.55;100.00;96410.72;5091371;28;20460;-80
2022/10/23 07:01:13;;;;;;;15.10;13.50;;;;;;;9.52;100.00;96404.22;5097370;28;20846;-80
2022/10/23 07:03:41;;;;;;;18.30;13.97;;;;;;;9.65;100.00;96426.97;5099231;28;20535;-80
2022/10/23 07:06:09;;;;;;;17.67;13.50;;;;;;;9.72;100.00;96424.59;5085265;28;20445;-80
2022/10/23 07:08:37;;;;;;;18.60;13.90;;;;;;;9.75;100.00;96425.84;5088874;28;20431;-80
2022/10/23 07:11:16;;;;;;;18.40;13.90;;;;;;;9.75;100.00;96437.19;5077530;28;20456;-80
2022/10/23 07:13:46;;;;;;;17.70;14.70;;;;;;;9.30;100.00;96373.56;5091478;28;20484;-80
2022/10/23 07:16:18;;;;;;;17.17;15.00;;;;;;;9.76;100.00;96445.88;5072674;28;20436;-79
2022/10/23 07:18:46;;;;;;;21.33;14.80;;;;;;;9.64;100.00;96433.34;5078901;28;20877;-80
2022/10/23 07:21:30;;;;;;;22.30;15.80;;;;;;;9.75;100.00;96463.59;5077130;28;20444;-79
2022/10/23 07:24:14;;;;;;;21.63;15.07;;;;;;;9.51;100.00;96426.41;5077223;28;20509;-80
2022/10/23 07:26:41;;;;;;;17.67;14.70;;;;;;;9.10;100.00;96351.28;5072265;28;20445;-80
2022/10/23 07:29:09;;;;;;;17.60;14.80;;;;;;;9.81;100.00;96461.53;5068124;28;20444;-80
2022/10/23 07:31:35;;;;;;;17.30;14.90;;;;;;;9.69;100.00;96438.44;5076615;28;20464;-80
2022/10/23 07:34:21;;;;;;;21.07;15.03;;;;;;;9.67;100.00;96431.94;5091268;28;20423;-80
2022/10/23 07:36:59;;;;;;;17.63;14.90;;;;;;;9.68;100.00;96438.75;5076242;28;20453;-80
2022/10/23 07:39:25;;;;;;;19.93;15.70;;;;;;;9.81;100.00;96448.34;5072972;28;20533;-80
2022/10/23 07:41:52;;;;;;;19.30;14.70;;;;;;;9.71;100.00;96438.13;5084328;28;20476;-80
2022/10/23 07:44:19;;;;;;;18.33;15.07;;;;;;;9.22;100.00;96366.47;5085545;28;20507;-80
2022/10/23 07:46:50;;;;;;;20.57;15.27;;;;;;;9.51;100.00;96409.81;5085442;28;20443;-80
2022/10/23 07:49:16;;;;;;;17.03;14.37;;;;;;;9.77;100.00;96428.94;5065811;28;20432;-80
2022/10/23 07:51:43;;;;;;;19.30;14.83;;;;;;;9.51;100.00;96386.06;5086802;28;20555;-80
2022/10/23 07:54:17;;;;;;;19.50;15.23;;;;;;;9.40;100.00;96367.16;5075428;28;20450;-80
2022/10/23 07:56:47;;;;;;;20.03;14.67;;;;;;;9.73;100.00;96433.28;5088296;28;20443;-80
2022/10/23 07:59:22;;;;;;;22.87;15.20;;;;;;;9.78;100.00;96446.34;5076718;28;20568;-80
2022/10/23 08:01:56;;;;;;;16.07;14.37;;;;;;;9.89;100.00;96459.97;5075300;28;20462;-80
2022/10/23 08:04:29;;;;;;;17.00;13.90;;;;;;;9.53;100.00;96381.22;5067572;28;20445;-80
2022/10/23 08:07:06;;;;;;;19.17;14.57;;;;;;;9.52;100.00;96383.09;5076703;28;20471;-80
2022/10/23 08:09:38;;;;;;;20.23;14.17;;;;;;;9.66;100.00;96393.44;5078921;28;20473;-80
2022/10/23 08:12:06;;;;;;;19.40;14.90;;;;;;;9.89;100.00;96423.00;5089849;28;20475;-80
2022/10/23 08:14:33;;;;;;;17.40;13.47;;;;;;;9.95;100.00;96427.75;5071754;28;20467;-80
2022/10/23 08:17:00;;;;;;;18.10;14.47;;;;;;;9.76;100.00;96385.16;5090874;28;20421;-80
2022/10/23 08:19:53;;;;;;;18.37;13.97;;;;;;;9.99;100.00;96433.94;5101568;28;20480;-80
2022/10/23 08:22:20;;;;;;;23.50;17.40;;;;;;;9.93;100.00;96434.47;5085793;28;20441;-80
2022/10/23 08:24:47;;;;;;;21.63;16.87;;;;;;;9.47;100.00;96355.00;5058952;28;20448;-80
2022/10/23 08:27:14;;;;;;;25.47;16.70;;;;;;;9.65;100.00;96366.25;5067800;28;20475;-80
2022/10/23 08:29:44;;;;;;;32.60;18.17;;;;;;;9.95;100.00;96413.78;5070823;28;20460;-80
2022/10/23 08:32:11;;;;;;;25.37;18.27;;;;;;;9.80;100.00;96378.13;5075928;28;20578;-80
2022/10/23 08:34:53;;;;;;;28.30;18.07;;;;;;;9.81;100.00;96371.75;5079883;28;20451;-80
2022/10/23 08:37:22;;;;;;;29.20;16.77;;;;;;;10.21;100.00;96408.34;5084259;28;20437;-80
2022/10/23 08:39:49;;;;;;;23.20;17.50;;;;;;;10.28;100.00;96411.25;5089123;28;20473;-80
2022/10/23 08:42:26;;;;;;;26.90;15.83;;;;;;;10.41;100.00;96422.69;5075676;28;20444;-80
2022/10/23 08:45:35;;;;;;;25.00;17.07;;;;;;;10.51;100.00;96415.16;5068519;28;20531;-80
2022/10/23 08:48:20;;;;;;;25.23;18.13;;;;;;;10.55;100.00;96415.25;5029381;28;20451;-80
2022/10/23 08:51:33;;;;;;;22.50;16.10;;;;;;;10.26;100.00;96384.38;5020568;28;20438;-80
2022/10/23 08:54:26;;;;;;;22.80;16.53;;;;;;;10.27;100.00;96384.06;4999108;28;20429;-80
2022/10/23 08:57:01;;;;;;;22.37;16.80;;;;;;;10.62;100.00;96400.44;5049737;28;20491;-80
2022/10/23 08:59:39;;;;;;;18.83;14.80;;;;;;;10.66;100.00;96414.53;5057381;28;20467;-80
2022/10/23 09:03:00;;;;;;;20.53;15.20;;;;;;;10.86;100.00;96426.22;5093449;28;20543;-80
2022/10/23 09:05:31;;;;;;;18.80;15.07;;;;;;;10.81;100.00;96421.09;5040193;28;20549;-80
2022/10/23 09:08:17;;;;;;;20.83;15.07;;;;;;;10.81;100.00;96423.75;5094002;28;20867;-79
2022/10/23 09:10:56;;;;;;;18.03;13.47;;;;;;;10.77;100.00;96425.50;5089169;28;20462;-79
2022/10/23 09:13:28;;;;;;;17.53;13.80;;;;;;;10.88;100.00;96424.00;5074024;28;20447;-79
2022/10/23 09:16:12;;;;;;;20.50;15.00;;;;;;;10.56;100.00;96374.53;5074383;28;20463;-79
2022/10/23 09:18:40;;;;;;;17.13;14.17;;;;;;;11.15;100.00;96440.41;5087964;28;20456;-79
2022/10/23 09:21:08;;;;;;;19.03;14.43;;;;;;;11.13;100.00;96447.91;5074007;28;20463;-79
2022/10/23 09:23:35;;;;;;;17.07;14.13;;;;;;;11.35;100.00;96442.25;5088620;28;20995;-80
2022/10/23 09:26:11;;;;;;;18.83;14.73;;;;;;;11.31;100.00;96441.34;5085771;28;20967;-79
2022/10/23 09:28:48;;;;;;;19.33;14.20;;;;;;;11.36;100.00;96427.91;5088118;28;20448;-79
2022/10/23 09:31:15;;;;;;;17.00;13.67;;;;;;;11.34;100.00;96442.56;5074639;28;20440;-80
2022/10/23 09:34:00;;;;;;;17.70;14.10;;;;;;;11.18;100.00;96410.66;5087421;28;20439;-79
2022/10/23 09:36:28;;;;;;;19.13;15.03;;;;;;;11.35;100.00;96438.81;5073831;28;20416;-79
2022/10/23 09:38:57;;;;;;;19.53;16.57;;;;;;;11.19;100.00;96434.13;5075007;28;20460;-79
2022/10/23 09:41:27;;;;;;;20.20;15.97;;;;;;;11.27;100.00;96413.22;5075176;28;20450;-79
2022/10/23 09:43:59;;;;;;;28.43;16.50;;;;;;;11.53;100.00;96413.69;5087272;28;20457;-79
2022/10/23 09:46:37;;;;;;;18.30;15.97;;;;;;;11.73;100.00;96426.06;5080229;28;20440;-79
2022/10/23 09:49:04;;;;;;;21.30;16.90;;;;;;;11.51;100.00;96384.13;5079580;28;20428;-79
2022/10/23 09:51:31;;;;;;;18.60;15.40;;;;;;;11.64;100.00;96409.53;5049496;28;20472;-79
2022/10/23 09:54:00;;;;;;;20.20;14.90;;;;;;;11.90;100.00;96413.75;5082698;28;20515;-79
2022/10/23 09:56:38;;;;;;;15.93;14.23;;;;;;;12.01;100.00;96410.28;5084369;28;20509;-79
2022/10/23 09:59:29;;;;;;;14.97;13.50;;;;;;;11.79;100.00;96394.88;5074706;28;20478;-79
2022/10/23 10:01:59;;;;;;;15.43;13.93;;;;;;;11.90;100.00;96427.00;5091219;28;20463;-79
2022/10/23 10:04:40;;;;;;;13.47;12.07;;;;;;;11.82;100.00;96373.78;5078661;28;20433;-79
2022/10/23 10:07:23;;;;;;;11.07;9.87;;;;;;;12.34;100.00;96426.06;5086798;28;20512;-79
2022/10/23 10:09:52;;;;;;;12.57;11.23;;;;;;;12.26;100.00;96410.25;5087660;28;20980;-79
2022/10/23 10:12:31;;;;;;;12.43;10.93;;;;;;;12.35;100.00;96389.69;5095108;28;20938;-79
2022/10/23 10:15:21;;;;;;;10.57;9.47;;;;;;;12.49;100.00;96400.72;5081719;28;20511;-79
2022/10/23 10:18:09;;;;;;;16.70;8.87;;;;;;;12.90;100.00;96438.59;5084670;28;20472;-79
2022/10/23 10:20:42;;;;;;;10.17;8.40;;;;;;;12.99;100.00;96434.69;5075936;28;20464;-79
2022/10/23 10:23:11;;;;;;;10.83;8.60;;;;;;;12.97;100.00;96409.59;5075119;28;20528;-79
2022/10/23 10:25:53;;;;;;;10.07;7.60;;;;;;;12.99;100.00;96428.63;5075050;28;20456;-79
2022/10/23 10:28:44;;;;;;;9.50;8.60;;;;;;;12.91;100.00;96419.69;5057964;28;20988;-79
2022/10/23 10:31:36;;;;;;;7.27;6.57;;;;;;;13.05;100.00;96416.63;5057728;28;20484;-80
2022/10/23 10:34:05;;;;;;;7.53;6.63;;;;;;;13.19;100.00;96413.59;5083878;28;20993;-79
2022/10/23 10:37:00;;;;;;;7.60;6.90;;;;;;;13.28;100.00;96409.69;5087275;28;20449;-79
2022/10/23 10:39:37;;;;;;;6.33;5.77;;;;;;;13.42;100.00;96406.63;5073404;28;20453;-79
2022/10/23 10:42:23;;;;;;;6.70;4.70;;;;;;;13.47;100.00;96395.72;5067083;28;20435;-80
2022/10/23 10:45:13;;;;;;;7.23;4.60;;;;;;;13.49;100.00;96390.09;5081814;28;20434;-79
2022/10/23 10:47:50;;;;;;;8.60;4.53;;;;;;;13.55;100.00;96402.00;5045587;28;20490;-79
2022/10/23 10:50:50;;;;;;;5.43;4.33;;;;;;;13.64;100.00;96397.28;5071201;28;20486;-79
2022/10/23 10:53:43;;;;;;;5.17;4.30;;;;;;;13.72;100.00;96385.69;5078306;28;20447;-79
2022/10/23 10:56:16;;;;;;;3.03;2.83;;;;;;;13.61;100.00;96377.47;5078775;28;20796;-80
2022/10/23 10:58:46;;;;;;;2.90;2.70;;;;;;;13.82;100.00;96395.03;5074928;28;20447;-80
2022/10/23 11:01:28;;;;;;;4.57;3.80;;;;;;;14.10;100.00;96390.34;5041198;28;20488;-80
2022/10/23 11:04:10;;;;;;;3.83;3.00;;;;;;;14.26;100.00;96384.22;5070880;28;20436;-80
2022/10/23 11:06:37;;;;;;;3.97;3.40;;;;;;;13.97;100.00;96358.91;5088838;28;20431;-80
2022/10/23 11:09:18;;;;;;;3.13;2.93;;;;;;;14.46;100.00;96375.94;5084342;28;20514;-79
2022/10/23 11:11:48;;;;;;;2.60;2.40;;;;;;;13.96;100.00;96317.50;5098118;28;20817;-79
2022/10/23 11:14:21;;;;;;;4.13;2.90;;;;;;;14.77;100.00;96368.91;5079276;28;20432;-80
2022/10/23 11:16:57;;;;;;;2.60;2.33;;;;;;;14.31;100.00;96280.22;5074654;28;20447;-80
2022/10/23 11:19:33;;;;;;;3.63;2.20;;;;;;;14.40;100.00;96267.44;5086153;28;20555;-80
2022/10/23 11:22:05;;;;;;;2.93;1.67;;;;;;;13.99;100.00;96245.78;5092831;28;20423;-80
2022/10/23 11:24:43;;;;;;;2.97;1.83;;;;;;;14.78;100.00;96355.25;5064983;28;20537;-79
2022/10/23 11:27:18;;;;;;;3.93;1.60;;;;;;;15.21;100.00;96358.66;5090786;28;20431;-79
2022/10/23 11:30:15;;;;;;;2.37;2.17;;;;;;;15.35;100.00;96352.81;5085613;28;20453;-79
2022/10/23 11:33:00;;;;;;;8.13;5.50;;;;;;;15.45;100.00;96346.88;5090143;28;20444;-79
2022/10/23 11:35:40;;;;;;;2.10;1.90;;;;;;;15.22;100.00;96301.59;5071049;28;20523;-80
2022/10/23 11:38:36;;;;;;;2.13;1.97;;;;;;;15.62;100.00;96334.97;5066282;28;20553;-80
2022/10/23 11:41:06;;;;;;;2.60;2.40;;;;;;;15.62;100.00;96316.31;5082875;28;20468;-79
2022/10/23 11:44:00;;;;;;;2.03;1.83;;;;;;;16.09;100.00;96328.41;5087540;28;20495;-79
2022/10/23 11:46:31;;;;;;;2.90;2.20;;;;;;;16.20;100.00;96324.75;5090002;28;21019;-79
2022/10/23 11:49:01;;;;;;;1.53;1.43;;;;;;;16.13;100.00;96318.56;5076677;28;20472;-79
2022/10/23 11:51:28;;;;;;;1.87;1.77;;;;;;;16.21;100.00;96322.84;5083369;28;20475;-78
2022/10/23 11:54:23;;;;;;;2.30;1.50;;;;;;;16.27;100.00;96311.50;5082886;28;20841;-79